createdAt,value
2019-06-08T00:00:40.427Z,0.97
2019-06-08T00:03:08.558Z,0.77
2019-06-08T00:05:36.667Z,1.10
2019-06-08T00:08:04.842Z,1.00
2019-06-08T00:10:33.052Z,0.90
2019-06-08T00:13:01.227Z,1.07
2019-06-08T00:15:29.343Z,1.13
2019-06-08T00:17:59.368Z,1.07
2019-06-08T00:20:27.340Z,0.90
2019-06-08T00:22:55.458Z,1.07
2019-06-08T00:25:24.214Z,1.20
2019-06-08T00:27:52.450Z,0.90
2019-06-08T00:30:20.636Z,1.33
2019-06-08T00:32:48.980Z,1.23
2019-06-08T00:35:17.111Z,1.20
2019-06-08T00:37:45.291Z,1.40
2019-06-08T00:40:14.708Z,1.40
2019-06-08T00:42:43.119Z,1.17
2019-06-08T00:45:12.228Z,1.07
2019-06-08T00:47:47.623Z,1.20
2019-06-08T00:50:10.475Z,1.10
2019-06-08T00:52:38.590Z,1.17
2019-06-08T00:55:07.379Z,1.00
2019-06-08T00:57:35.487Z,1.20
2019-06-08T01:00:10.528Z,1.20
2019-06-08T01:02:37.730Z,1.27
2019-06-08T01:05:06.246Z,1.40
2019-06-08T01:07:34.625Z,1.40
2019-06-08T01:10:03.603Z,1.30
2019-06-08T01:12:31.716Z,0.97
2019-06-08T01:14:59.834Z,1.10
2019-06-08T01:17:29.289Z,1.23
2019-06-08T01:19:57.626Z,1.20
2019-06-08T01:22:25.818Z,1.20
2019-06-08T01:24:53.946Z,1.20
2019-06-08T01:27:22.117Z,1.10
2019-06-08T01:29:50.276Z,1.33
2019-06-08T01:32:18.402Z,1.23
2019-06-08T01:34:46.604Z,1.20
2019-06-08T01:37:14.711Z,1.20
2019-06-08T01:39:42.816Z,1.30
2019-06-08T01:42:11.020Z,1.07
2019-06-08T01:44:39.206Z,1.00
2019-06-08T01:47:07.326Z,1.37
2019-06-08T01:49:35.492Z,1.60
2019-06-08T01:52:03.670Z,1.20
2019-06-08T01:54:33.163Z,2.00
2019-06-08T01:57:01.494Z,1.20
2019-06-08T01:59:29.675Z,1.53
2019-06-08T02:01:57.800Z,1.23
2019-06-08T02:04:26.052Z,1.17
2019-06-08T02:06:54.339Z,1.50
2019-06-08T02:09:22.467Z,1.07
2019-06-08T02:11:50.602Z,1.20
2019-06-08T02:14:18.738Z,1.47
2019-06-08T02:16:46.871Z,1.13
2019-06-08T02:19:14.995Z,1.50
2019-06-08T02:21:43.132Z,1.40
2019-06-08T02:24:11.339Z,1.30
2019-06-08T02:26:39.713Z,1.50
2019-06-08T02:29:07.940Z,1.40
2019-06-08T02:31:37.766Z,1.40
2019-06-08T02:34:06.146Z,1.20
2019-06-08T02:36:35.880Z,1.30
2019-06-08T02:39:05.834Z,1.30
2019-06-08T02:41:35.305Z,1.50
2019-06-08T02:44:03.647Z,1.23
2019-06-08T02:46:33.329Z,1.60
2019-06-08T02:49:04.507Z,1.30
2019-06-08T02:51:34.339Z,1.20
2019-06-08T02:54:02.331Z,1.33
2019-06-08T02:56:32.023Z,1.00
2019-06-08T02:59:01.066Z,1.30
2019-06-08T03:01:31.411Z,1.40
2019-06-08T03:04:00.863Z,1.93
2019-06-08T03:06:30.749Z,1.53
2019-06-08T03:09:01.556Z,1.60
2019-06-08T03:11:30.468Z,1.50
2019-06-08T03:13:58.773Z,1.13
2019-06-08T03:16:26.879Z,1.40
2019-06-08T03:18:55.012Z,1.40
2019-06-08T03:21:23.127Z,1.57
2019-06-08T03:23:51.249Z,1.53
2019-06-08T03:26:19.398Z,1.80
2019-06-08T03:28:47.568Z,1.73
2019-06-08T03:31:15.704Z,1.80
2019-06-08T03:33:53.274Z,1.47
2019-06-08T03:36:13.693Z,1.30
2019-06-08T03:38:42.500Z,1.70
2019-06-08T03:41:11.713Z,1.50
2019-06-08T03:43:40.827Z,1.40
2019-06-08T03:46:09.688Z,1.20
2019-06-08T03:48:39.509Z,1.20
2019-06-08T03:51:07.719Z,1.57
2019-06-08T03:53:37.765Z,1.50
2019-06-08T03:56:05.727Z,1.43
2019-06-08T03:58:34.418Z,1.50
2019-06-08T04:01:03.939Z,1.40
2019-06-08T04:03:32.046Z,1.43
2019-06-08T04:06:00.159Z,1.60
2019-06-08T04:08:28.294Z,1.60
2019-06-08T04:10:56.408Z,1.70
2019-06-08T04:13:24.508Z,1.90
2019-06-08T04:15:52.645Z,1.60
2019-06-08T04:18:20.758Z,1.70
2019-06-08T04:20:51.321Z,1.70
2019-06-08T04:23:18.880Z,1.50
2019-06-08T04:25:47.670Z,1.70
2019-06-08T04:28:15.989Z,1.40
2019-06-08T04:30:47.134Z,1.70
2019-06-08T04:33:15.503Z,1.30
2019-06-08T04:35:45.187Z,1.60
2019-06-08T04:38:13.850Z,1.40
2019-06-08T04:40:43.385Z,1.60
2019-06-08T04:43:11.772Z,1.60
2019-06-08T04:45:41.173Z,1.53
2019-06-08T04:48:10.027Z,1.40
2019-06-08T04:50:38.666Z,2.00
2019-06-08T04:53:06.934Z,1.50
2019-06-08T04:55:35.059Z,1.60
2019-06-08T04:58:03.256Z,1.70
2019-06-08T05:00:31.620Z,1.90
2019-06-08T05:02:59.832Z,1.70
2019-06-08T05:05:27.972Z,1.90
2019-06-08T05:07:56.103Z,1.50
2019-06-08T05:10:24.311Z,1.40
2019-06-08T05:12:52.423Z,1.63
2019-06-08T05:15:20.695Z,1.90
2019-06-08T05:17:49.638Z,1.37
2019-06-08T05:20:19.199Z,1.83
2019-06-08T05:22:47.643Z,1.80
2019-06-08T05:25:15.892Z,1.60
2019-06-08T05:27:45.284Z,1.70
2019-06-08T05:30:17.508Z,1.30
2019-06-08T05:32:45.674Z,1.60
2019-06-08T05:35:13.914Z,1.90
2019-06-08T05:37:43.648Z,1.50
2019-06-08T05:40:12.223Z,1.60
2019-06-08T05:42:42.035Z,1.60
2019-06-08T05:45:11.242Z,1.50
2019-06-08T05:47:39.774Z,1.80
2019-06-08T05:50:09.115Z,1.83
2019-06-08T05:52:37.245Z,1.90
2019-06-08T05:55:06.619Z,1.50
2019-06-08T05:57:34.754Z,1.67
2019-06-08T06:00:08.830Z,1.90
2019-06-08T06:02:33.899Z,1.80
2019-06-08T06:05:02.022Z,1.77
2019-06-08T06:07:30.178Z,1.80
2019-06-08T06:09:58.311Z,2.37
2019-06-08T06:12:26.472Z,1.80
2019-06-08T06:14:54.607Z,1.63
2019-06-08T06:17:22.739Z,1.40
2019-06-08T06:19:51.523Z,1.90
2019-06-08T06:22:19.837Z,1.60
2019-06-08T06:24:47.971Z,1.70
2019-06-08T06:27:16.134Z,1.80
2019-06-08T06:29:45.362Z,1.60
2019-06-08T06:32:13.734Z,1.50
2019-06-08T06:34:42.037Z,1.50
2019-06-08T06:37:10.251Z,1.80
2019-06-08T06:39:38.368Z,1.60
2019-06-08T06:42:06.491Z,2.20
2019-06-08T06:44:34.610Z,2.07
2019-06-08T06:47:02.747Z,1.90
2019-06-08T06:49:30.852Z,1.70
2019-06-08T06:51:58.968Z,1.60
2019-06-08T06:54:27.089Z,2.20
2019-06-08T06:56:55.208Z,2.30
2019-06-08T06:59:23.325Z,1.90
2019-06-08T07:01:55.578Z,2.00
2019-06-08T07:04:21.974Z,1.70
2019-06-08T07:06:50.173Z,2.20
2019-06-08T07:09:18.341Z,2.20
2019-06-08T07:11:46.849Z,2.10
2019-06-08T07:14:15.136Z,2.03
2019-06-08T07:16:43.339Z,2.00
2019-06-08T07:19:11.454Z,1.93
2019-06-08T07:21:42.040Z,2.20
2019-06-08T07:24:09.416Z,2.23
2019-06-08T07:26:37.525Z,2.10
2019-06-08T07:29:05.750Z,2.10
2019-06-08T07:31:33.856Z,2.00
2019-06-08T07:34:01.982Z,2.20
2019-06-08T07:36:30.164Z,2.60
2019-06-08T07:38:59.578Z,2.23
2019-06-08T07:41:27.881Z,2.30
2019-06-08T07:43:56.543Z,2.40
2019-06-08T07:46:24.883Z,2.47
2019-06-08T07:48:54.107Z,2.40
2019-06-08T07:51:24.692Z,2.37
2019-06-08T07:53:53.598Z,2.37
2019-06-08T07:56:21.823Z,2.63
2019-06-08T07:58:51.441Z,2.00
2019-06-08T08:01:34.971Z,2.03
2019-06-08T08:03:49.949Z,1.90
2019-06-08T08:06:19.862Z,2.00
2019-06-08T08:08:48.408Z,2.47
2019-06-08T08:11:16.579Z,2.37
2019-06-08T08:13:44.702Z,2.33
2019-06-08T08:16:12.807Z,2.13
2019-06-08T08:18:40.922Z,2.27
2019-06-08T08:21:21.252Z,2.00
2019-06-08T08:23:40.861Z,2.00
2019-06-08T08:26:09.110Z,1.90
2019-06-08T08:28:37.569Z,2.17
2019-06-08T08:31:07.884Z,1.93
2019-06-08T08:33:38.847Z,2.27
2019-06-08T08:36:07.314Z,2.00
2019-06-08T08:38:38.147Z,1.97
2019-06-08T08:41:08.154Z,2.10
2019-06-08T08:43:37.714Z,2.03
2019-06-08T08:46:07.659Z,2.30
2019-06-08T08:48:39.437Z,1.90
2019-06-08T08:51:08.588Z,2.40
2019-06-08T08:53:38.195Z,2.00
2019-06-08T08:56:07.330Z,1.93
2019-06-08T08:58:37.933Z,1.83
2019-06-08T09:01:07.993Z,1.90
2019-06-08T09:03:35.403Z,2.53
2019-06-08T09:06:04.074Z,2.47
2019-06-08T09:08:32.358Z,2.40
2019-06-08T09:11:03.232Z,2.30
2019-06-08T09:13:30.327Z,2.33
2019-06-08T09:16:00.761Z,2.10
2019-06-08T09:18:28.706Z,2.03
2019-06-08T09:21:00.352Z,1.70
2019-06-08T09:23:28.001Z,1.73
2019-06-08T09:26:04.267Z,2.10
2019-06-08T09:28:28.549Z,2.20
2019-06-08T09:30:59.015Z,1.73
2019-06-08T09:33:28.658Z,1.87
2019-06-08T09:35:59.966Z,1.87
2019-06-08T09:38:28.487Z,1.90
2019-06-08T09:40:57.482Z,1.73
2019-06-08T09:43:25.729Z,2.00
2019-06-08T09:45:55.256Z,2.23
2019-06-08T09:48:23.648Z,2.00
2019-06-08T09:50:52.981Z,2.20
2019-06-08T09:53:28.502Z,2.13
2019-06-08T09:55:51.144Z,2.03
2019-06-08T09:58:19.281Z,1.53
2019-06-08T10:00:48.637Z,2.17
2019-06-08T10:03:18.597Z,1.73
2019-06-08T10:05:48.422Z,1.90
2019-06-08T10:08:20.270Z,1.93
2019-06-08T10:10:48.407Z,2.20
2019-06-08T10:13:18.722Z,2.00
2019-06-08T10:15:48.722Z,2.00
2019-06-08T10:18:17.679Z,2.10
2019-06-08T10:20:48.005Z,2.10
2019-06-08T10:23:30.363Z,1.90
2019-06-08T10:25:47.994Z,2.30
2019-06-08T10:28:20.806Z,2.00
2019-06-08T10:30:48.307Z,1.90
2019-06-08T10:33:18.244Z,2.00
2019-06-08T10:35:47.858Z,1.90
2019-06-08T10:38:17.896Z,2.00
2019-06-08T10:41:08.597Z,2.03
2019-06-08T10:43:30.587Z,2.50
2019-06-08T10:46:04.938Z,2.97
2019-06-08T10:48:29.125Z,2.40
2019-06-08T10:50:58.558Z,2.33
2019-06-08T10:53:29.784Z,2.30
2019-06-08T10:55:58.221Z,2.40
2019-06-08T10:58:28.350Z,2.20
2019-06-08T11:01:00.113Z,2.17
2019-06-08T11:03:30.444Z,1.73
2019-06-08T11:06:00.441Z,1.80
2019-06-08T11:08:27.562Z,1.93
2019-06-08T11:10:57.928Z,2.17
2019-06-08T11:13:28.139Z,2.27
2019-06-08T11:15:58.057Z,2.20
2019-06-08T11:18:25.497Z,2.17
2019-06-08T11:20:54.652Z,2.30
2019-06-08T11:23:22.777Z,2.30
2019-06-08T11:25:50.929Z,2.60
2019-06-08T11:28:19.130Z,3.20
2019-06-08T11:30:48.091Z,3.30
2019-06-08T11:33:16.405Z,3.73
2019-06-08T11:35:44.581Z,4.27
2019-06-08T11:38:12.857Z,4.50
2019-06-08T11:40:41.120Z,5.07
2019-06-08T11:43:10.662Z,6.03
2019-06-08T11:45:38.918Z,5.47
2019-06-08T11:48:08.633Z,4.50
2019-06-08T11:50:41.710Z,3.97
2019-06-08T11:53:13.617Z,3.77
2019-06-08T11:55:38.512Z,3.80
2019-06-08T11:58:09.816Z,3.73
2019-06-08T12:00:40.949Z,2.70
2019-06-08T12:03:11.518Z,2.90
2019-06-08T12:05:38.916Z,2.77
2019-06-08T12:08:07.056Z,2.90
2019-06-08T12:10:35.188Z,2.98
2019-06-08T12:13:04.618Z,2.92
2019-06-08T12:15:32.854Z,2.92
2019-06-08T12:18:00.973Z,2.83
2019-06-08T12:20:29.102Z,3.30
2019-06-08T12:22:57.282Z,3.10
2019-06-08T12:25:25.423Z,2.70
2019-06-08T12:27:53.623Z,3.27
2019-06-08T12:30:26.028Z,3.27
2019-06-08T12:32:51.661Z,2.80
2019-06-08T12:35:19.792Z,2.70
2019-06-08T12:37:48.349Z,2.22
2019-06-08T12:40:20.459Z,2.35
2019-06-08T12:42:47.710Z,2.67
2019-06-08T12:45:15.923Z,2.62
2019-06-08T12:47:44.123Z,2.75
2019-06-08T12:50:13.832Z,2.98
2019-06-08T12:52:43.231Z,2.85
2019-06-08T12:55:16.442Z,2.25
2019-06-08T12:57:41.771Z,2.50
2019-06-08T13:00:11.540Z,2.37
2019-06-08T13:02:39.901Z,2.52
2019-06-08T13:05:10.644Z,2.52
2019-06-08T13:07:38.580Z,2.42
2019-06-08T13:10:08.815Z,2.20
2019-06-08T13:12:40.695Z,2.60
2019-06-08T13:15:08.462Z,2.20
2019-06-08T13:17:38.075Z,2.20
2019-06-08T13:20:09.089Z,2.42
2019-06-08T13:22:39.107Z,2.33
2019-06-08T13:25:21.082Z,2.50
2019-06-08T13:27:38.401Z,2.33
2019-06-08T13:30:07.502Z,2.30
2019-06-08T13:32:38.281Z,1.77
2019-06-08T13:35:08.111Z,2.05
2019-06-08T13:37:36.875Z,2.05
2019-06-08T13:40:08.149Z,2.10
2019-06-08T13:42:38.315Z,2.30
2019-06-08T13:45:07.578Z,2.10
2019-06-08T13:47:40.923Z,2.08
2019-06-08T13:50:11.022Z,2.10
2019-06-08T13:52:39.542Z,2.98
2019-06-08T13:55:08.080Z,2.60
2019-06-08T13:57:37.920Z,2.37
2019-06-08T14:00:10.844Z,2.20
2019-06-08T14:02:39.841Z,1.60
2019-06-08T14:05:08.422Z,2.10
2019-06-08T14:07:38.092Z,2.08
2019-06-08T14:10:07.917Z,1.62
2019-06-08T14:12:38.388Z,1.80
2019-06-08T14:15:08.426Z,2.05
2019-06-08T14:17:37.839Z,1.92
2019-06-08T14:20:08.023Z,1.80
2019-06-08T14:22:38.645Z,1.82
2019-06-08T14:25:10.562Z,1.90
2019-06-08T14:27:37.530Z,1.77
2019-06-08T14:30:08.392Z,2.10
2019-06-08T14:32:38.122Z,2.05
2019-06-08T14:35:08.429Z,2.00
2019-06-08T14:37:38.097Z,1.98
2019-06-08T14:40:08.162Z,1.70
2019-06-08T14:42:38.385Z,2.05
2019-06-08T14:45:07.546Z,2.08
2019-06-08T14:47:37.638Z,2.10
2019-06-08T14:50:07.952Z,1.80
2019-06-08T14:52:38.075Z,2.22
2019-06-08T14:55:08.016Z,2.00
2019-06-08T14:57:37.940Z,2.25
2019-06-08T15:00:09.624Z,2.35
2019-06-08T15:02:38.131Z,2.25
2019-06-08T15:05:07.794Z,1.80
2019-06-08T15:07:38.668Z,1.98
2019-06-08T15:10:09.793Z,1.70
2019-06-08T15:12:38.053Z,2.60
2019-06-08T15:15:08.295Z,2.22
2019-06-08T15:17:37.967Z,1.92
2019-06-08T15:20:08.878Z,2.00
2019-06-08T15:22:38.863Z,1.90
2019-06-08T15:25:10.708Z,1.65
2019-06-08T15:27:38.749Z,2.30
2019-06-08T15:30:07.660Z,1.87
2019-06-08T15:32:38.585Z,2.45
2019-06-08T15:35:08.130Z,2.10
2019-06-08T15:37:40.496Z,1.85
2019-06-08T15:40:07.717Z,2.10
2019-06-08T15:42:36.381Z,1.90
2019-06-08T15:45:08.097Z,2.02
2019-06-08T15:47:35.470Z,2.17
2019-06-08T15:50:04.790Z,2.17
2019-06-08T15:52:34.208Z,1.85
2019-06-08T15:55:02.527Z,1.72
2019-06-08T15:57:34.310Z,2.22
2019-06-08T16:00:00.511Z,1.80
2019-06-08T16:02:29.453Z,1.77
2019-06-08T16:04:57.703Z,1.67
2019-06-08T16:07:28.576Z,3.15
2019-06-08T16:09:55.734Z,2.10
2019-06-08T16:12:24.283Z,2.30
2019-06-08T16:14:52.564Z,1.90
2019-06-08T16:17:20.956Z,1.62
2019-06-08T16:19:49.088Z,1.85
2019-06-08T16:22:17.223Z,2.10
2019-06-08T16:24:45.358Z,2.05
2019-06-08T16:27:14.035Z,1.90
2019-06-08T16:29:43.045Z,1.92
2019-06-08T16:32:11.237Z,1.90
2019-06-08T16:34:39.973Z,1.67
2019-06-08T16:37:08.311Z,1.95
2019-06-08T16:39:36.498Z,1.85
2019-06-08T16:42:04.620Z,2.00
2019-06-08T16:44:32.766Z,1.52
2019-06-08T16:47:01.268Z,1.30
2019-06-08T16:49:29.401Z,1.50
2019-06-08T16:51:57.600Z,1.30
2019-06-08T16:54:25.741Z,1.60
2019-06-08T16:57:08.943Z,1.55
2019-06-08T16:59:23.738Z,1.60
2019-06-08T17:01:51.878Z,1.42
2019-06-08T17:04:20.032Z,2.20
2019-06-08T17:06:48.230Z,1.55
2019-06-08T17:09:16.341Z,1.40
2019-06-08T17:11:44.639Z,1.50
2019-06-08T17:14:12.882Z,1.82
2019-06-08T17:16:44.034Z,1.55
2019-06-08T17:19:11.940Z,1.42
2019-06-08T17:21:40.507Z,2.77
2019-06-08T17:24:08.759Z,1.80
2019-06-08T17:26:36.922Z,2.10
2019-06-08T17:29:05.105Z,1.75
2019-06-08T17:31:33.256Z,1.60
2019-06-08T17:34:01.436Z,1.50
2019-06-08T17:36:29.569Z,2.40
2019-06-08T17:38:57.695Z,1.60
2019-06-08T17:41:25.901Z,1.57
2019-06-08T17:43:54.121Z,1.60
2019-06-08T17:46:22.315Z,1.45
2019-06-08T17:48:50.492Z,1.50
2019-06-08T17:51:18.613Z,1.80
2019-06-08T17:53:46.738Z,1.87
2019-06-08T17:56:14.890Z,1.97
2019-06-08T17:58:43.432Z,1.57
2019-06-08T18:01:13.470Z,2.20
2019-06-08T18:03:42.762Z,1.90
2019-06-08T18:06:12.060Z,1.73
2019-06-08T18:08:41.957Z,1.77
2019-06-08T18:11:10.131Z,1.37
2019-06-08T18:13:42.471Z,1.53
2019-06-08T18:16:11.408Z,1.70
2019-06-08T18:18:42.298Z,1.30
2019-06-08T18:21:10.743Z,1.30
2019-06-08T18:23:41.880Z,1.10
2019-06-08T18:26:10.978Z,1.30
2019-06-08T18:28:40.908Z,1.37
2019-06-08T18:31:09.335Z,1.20
2019-06-08T18:33:39.897Z,1.30
2019-06-08T18:36:08.719Z,1.53
2019-06-08T18:38:39.777Z,1.33
2019-06-08T18:41:08.245Z,1.00
2019-06-08T18:43:39.260Z,1.53
2019-06-08T18:46:07.155Z,1.20
2019-06-08T18:48:38.119Z,1.40
2019-06-08T18:51:08.093Z,1.20
2019-06-08T18:53:49.271Z,1.30
2019-06-08T18:56:08.029Z,1.13
2019-06-08T18:58:35.686Z,1.63
2019-06-08T19:01:03.814Z,1.40
2019-06-08T19:03:31.949Z,1.33
2019-06-08T19:06:00.140Z,1.13
2019-06-08T19:08:28.375Z,1.50
2019-06-08T19:14:09.863Z,1.33
2019-06-08T19:16:42.820Z,1.63
2019-06-08T19:21:46.007Z,1.50
2019-06-08T19:24:17.541Z,2.43
2019-06-08T19:26:45.925Z,1.40
2019-06-08T19:29:19.158Z,1.30
2019-06-08T19:31:49.957Z,1.30
2019-06-08T19:34:18.084Z,1.50
2019-06-08T19:36:52.146Z,1.50
2019-06-08T19:39:17.817Z,1.50
2019-06-08T19:41:48.921Z,1.43
2019-06-08T19:44:18.146Z,1.40
2019-06-08T19:46:52.310Z,1.33
2019-06-08T19:49:18.573Z,1.83
2019-06-08T19:51:48.554Z,1.50
2019-06-08T19:54:18.609Z,1.57
2019-06-08T19:56:52.453Z,1.40
2019-06-08T19:59:18.275Z,1.13
2019-06-08T20:01:51.390Z,1.37
2019-06-08T20:04:18.261Z,1.30
2019-06-08T20:06:47.994Z,1.40
2019-06-08T20:09:18.105Z,1.67
2019-06-08T20:11:55.528Z,1.57
2019-06-08T20:14:19.853Z,1.50
2019-06-08T20:16:49.623Z,1.63
2019-06-08T20:19:17.914Z,1.30
2019-06-08T20:21:50.861Z,1.27
2019-06-08T20:24:18.456Z,1.70
2019-06-08T20:26:51.720Z,1.50
2019-06-08T20:29:21.397Z,1.80
2019-06-08T20:31:51.598Z,2.00
2019-06-08T20:34:22.011Z,1.87
2019-06-08T20:36:50.727Z,2.00
2019-06-08T20:39:21.035Z,1.50
2019-06-08T20:41:51.512Z,1.80
2019-06-08T20:44:19.175Z,1.80
2019-06-08T20:46:49.521Z,1.80
2019-06-08T20:49:17.584Z,1.57
2019-06-08T20:51:48.185Z,1.40
2019-06-08T20:54:17.481Z,1.40
2019-06-08T20:56:47.884Z,1.30
2019-06-08T20:59:29.597Z,1.50
2019-06-08T21:01:48.815Z,1.63
2019-06-08T21:04:18.207Z,1.67
2019-06-08T21:06:48.630Z,1.60
2019-06-08T21:09:18.598Z,1.30
2019-06-08T21:11:49.430Z,1.23
2019-06-08T21:14:17.430Z,1.40
2019-06-08T21:16:49.288Z,1.43
2019-06-08T21:19:19.128Z,1.40
2019-06-08T21:21:50.214Z,1.33
2019-06-08T21:24:17.373Z,1.87
2019-06-08T21:26:50.702Z,1.37
2019-06-08T21:29:17.578Z,1.37
2019-06-08T21:31:50.168Z,1.60
2019-06-08T21:34:18.129Z,1.60
2019-06-08T21:36:49.348Z,2.10
2019-06-08T21:39:17.416Z,1.77
2019-06-08T21:41:50.037Z,2.10
2019-06-08T21:44:15.631Z,2.03
2019-06-08T21:46:43.860Z,1.90
2019-06-08T21:49:12.001Z,1.80
2019-06-08T21:51:40.116Z,1.70
2019-06-08T21:54:08.232Z,1.90
2019-06-08T21:56:37.045Z,1.53
2019-06-08T21:59:07.841Z,1.93
2019-06-08T22:01:37.548Z,1.93
2019-06-08T22:04:08.937Z,2.10
2019-06-08T22:06:38.262Z,1.60
2019-06-08T22:09:14.242Z,2.03
2019-06-08T22:11:39.835Z,1.63
2019-06-08T22:14:07.961Z,2.03
2019-06-08T22:16:38.190Z,2.07
2019-06-08T22:19:07.648Z,1.90
2019-06-08T22:21:39.216Z,2.00
2019-06-08T22:24:07.954Z,1.73
2019-06-08T22:26:36.361Z,2.50
2019-06-08T22:29:04.561Z,2.00
2019-06-08T22:31:32.771Z,2.30
2019-06-08T22:34:02.538Z,1.90
2019-06-08T22:36:30.731Z,1.93
2019-06-08T22:39:00.602Z,1.70
2019-06-08T22:41:28.699Z,1.60
2019-06-08T22:43:59.135Z,2.00
2019-06-08T22:46:26.773Z,1.90
2019-06-08T22:48:59.534Z,2.10
2019-06-08T22:51:27.679Z,2.37
2019-06-08T22:53:58.926Z,2.03
2019-06-08T22:56:27.601Z,1.87
2019-06-08T22:58:56.250Z,2.20
2019-06-08T23:01:28.074Z,2.13
2019-06-08T23:03:59.097Z,2.03
2019-06-08T23:06:27.924Z,2.33
2019-06-08T23:08:59.797Z,2.00
2019-06-08T23:11:25.763Z,2.07
2019-06-08T23:13:54.320Z,2.17
2019-06-08T23:16:22.585Z,2.47
2019-06-08T23:18:50.714Z,2.10
2019-06-08T23:21:18.834Z,2.03
2019-06-08T23:23:47.680Z,1.87
2019-06-08T23:26:18.139Z,2.10
2019-06-08T23:28:47.186Z,2.10
2019-06-08T23:31:22.495Z,2.43
2019-06-08T23:33:47.992Z,2.70
2019-06-08T23:36:45.636Z,2.27
2019-06-08T23:38:44.965Z,2.27
2019-06-08T23:41:13.088Z,2.63
2019-06-08T23:43:41.302Z,2.83
2019-06-08T23:46:09.496Z,2.80
2019-06-08T23:48:37.606Z,2.40
2019-06-08T23:51:09.116Z,2.23
2019-06-08T23:53:38.036Z,2.57
2019-06-08T23:56:08.433Z,2.60
2019-06-08T23:58:37.142Z,2.40
